createdAt,value
2019-02-20T00:01:25.988Z,2.12
2019-02-20T00:03:54.013Z,2.40
2019-02-20T00:06:21.987Z,3.00
2019-02-20T00:08:49.991Z,2.25
2019-02-20T00:11:18.009Z,1.90
2019-02-20T00:13:46.007Z,1.85
2019-02-20T00:16:14.165Z,2.35
2019-02-20T00:18:42.184Z,1.92
2019-02-20T00:21:10.164Z,2.00
2019-02-20T00:23:38.233Z,2.17
2019-02-20T00:26:06.235Z,1.90
2019-02-20T00:28:34.280Z,1.82
2019-02-20T00:31:02.314Z,2.30
2019-02-20T00:33:31.336Z,2.00
2019-02-20T00:36:00.668Z,1.60
2019-02-20T00:38:28.665Z,1.60
2019-02-20T00:40:56.675Z,2.20
2019-02-20T00:43:24.710Z,2.37
2019-02-20T00:45:54.339Z,2.00
2019-02-20T00:48:23.963Z,2.00
2019-02-20T00:50:53.578Z,2.02
2019-02-20T00:53:29.359Z,2.00
2019-02-20T00:55:57.339Z,2.17
2019-02-20T00:58:25.308Z,1.60
2019-02-20T01:00:53.289Z,1.98
2019-02-20T01:03:21.384Z,1.82
2019-02-20T01:05:49.356Z,1.20
2019-02-20T01:08:17.391Z,1.62
2019-02-20T01:10:46.616Z,1.30
2019-02-20T01:13:14.682Z,1.40
2019-02-20T01:15:42.723Z,1.52
2019-02-20T01:18:10.685Z,1.85
2019-02-20T01:20:38.670Z,1.55
2019-02-20T01:23:06.642Z,1.40
2019-02-20T01:25:34.628Z,1.20
2019-02-20T01:28:02.657Z,2.40
2019-02-20T01:30:30.697Z,1.98
2019-02-20T01:32:58.801Z,1.70
2019-02-20T01:35:26.876Z,1.77
2019-02-20T01:37:54.901Z,1.35
2019-02-20T01:40:22.961Z,1.40
2019-02-20T01:42:51.012Z,1.22
2019-02-20T01:45:19.106Z,1.10
2019-02-20T01:47:47.118Z,0.82
2019-02-20T01:50:15.198Z,0.80
2019-02-20T01:52:43.245Z,1.10
2019-02-20T01:55:11.230Z,1.30
2019-02-20T01:57:39.231Z,1.32
2019-02-20T02:00:09.079Z,1.10
2019-02-20T02:02:37.546Z,1.90
2019-02-20T02:05:14.533Z,1.20
2019-02-20T02:07:35.423Z,2.23
2019-02-20T02:10:03.773Z,1.70
2019-02-20T02:12:32.235Z,1.80
2019-02-20T02:15:00.408Z,1.77
2019-02-20T02:17:28.424Z,1.40
2019-02-20T02:19:56.402Z,1.47
2019-02-20T02:22:24.467Z,1.60
2019-02-20T02:24:52.451Z,1.72
2019-02-20T02:27:20.546Z,1.87
2019-02-20T02:29:48.607Z,1.70
2019-02-20T02:32:16.715Z,1.85
2019-02-20T02:34:44.729Z,1.65
2019-02-20T02:37:12.717Z,2.87
2019-02-20T02:39:41.769Z,1.72
2019-02-20T02:42:09.823Z,1.70
2019-02-20T02:44:37.867Z,1.90
2019-02-20T02:47:05.861Z,2.08
2019-02-20T02:49:33.835Z,1.42
2019-02-20T02:52:01.919Z,1.40
2019-02-20T02:54:29.897Z,1.50
2019-02-20T02:56:58.351Z,1.60
2019-02-20T02:59:26.404Z,1.45
2019-02-20T03:01:54.425Z,1.22
2019-02-20T03:04:22.452Z,1.37
2019-02-20T03:06:50.433Z,1.50
2019-02-20T03:09:18.431Z,1.80
2019-02-20T03:11:46.429Z,1.37
2019-02-20T03:14:14.400Z,1.70
2019-02-20T03:16:42.380Z,2.00
2019-02-20T03:19:10.453Z,2.20
2019-02-20T03:21:38.495Z,2.20
2019-02-20T03:24:06.487Z,1.62
2019-02-20T03:26:34.541Z,1.30
2019-02-20T03:29:02.545Z,1.70
2019-02-20T03:31:30.534Z,1.50
2019-02-20T03:33:59.955Z,1.40
2019-02-20T03:36:30.072Z,1.60
2019-02-20T03:39:00.908Z,1.47
2019-02-20T03:41:30.533Z,1.55
2019-02-20T03:43:58.571Z,1.52
2019-02-20T03:46:26.594Z,1.25
2019-02-20T03:48:54.564Z,1.22
2019-02-20T03:51:22.555Z,1.12
2019-02-20T03:53:52.298Z,1.35
2019-02-20T03:56:20.220Z,0.90
2019-02-20T03:58:48.205Z,0.93
2019-02-20T04:01:16.205Z,1.00
2019-02-20T04:03:44.274Z,0.65
2019-02-20T04:06:12.245Z,1.50
2019-02-20T04:08:40.239Z,1.12
2019-02-20T04:11:08.288Z,1.10
2019-02-20T04:13:36.291Z,1.50
2019-02-20T04:16:04.287Z,1.75
2019-02-20T04:18:32.466Z,1.07
2019-02-20T04:21:00.440Z,1.50
2019-02-20T04:23:28.418Z,2.22
2019-02-20T04:25:56.481Z,1.40
2019-02-20T04:28:25.528Z,2.40
2019-02-20T04:30:53.535Z,1.95
2019-02-20T04:33:21.556Z,2.08
2019-02-20T04:35:49.598Z,2.12
2019-02-20T04:38:17.671Z,1.67
2019-02-20T04:40:45.791Z,2.55
2019-02-20T04:43:13.788Z,1.52
2019-02-20T04:45:41.773Z,2.40
2019-02-20T04:48:10.174Z,2.02
2019-02-20T04:50:38.210Z,1.40
2019-02-20T04:53:06.355Z,2.35
2019-02-20T04:55:34.330Z,1.72
2019-02-20T04:58:03.956Z,1.60
2019-02-20T05:00:31.917Z,2.47
2019-02-20T05:02:59.903Z,1.90
2019-02-20T05:05:27.924Z,1.82
2019-02-20T05:07:56.213Z,2.20
2019-02-20T05:10:24.240Z,2.20
2019-02-20T05:12:52.501Z,2.62
2019-02-20T05:15:20.486Z,2.20
2019-02-20T05:17:48.469Z,2.27
2019-02-20T05:20:16.523Z,2.10
2019-02-20T05:22:45.574Z,2.05
2019-02-20T05:25:13.564Z,1.75
2019-02-20T05:27:41.587Z,1.90
2019-02-20T05:30:09.655Z,2.45
2019-02-20T05:32:37.620Z,1.70
2019-02-20T05:35:05.610Z,2.20
2019-02-20T05:37:33.612Z,3.08
2019-02-20T05:40:03.741Z,1.90
2019-02-20T05:42:31.760Z,2.20
2019-02-20T05:44:59.826Z,2.55
2019-02-20T05:47:27.887Z,2.50
2019-02-20T05:49:55.953Z,2.60
2019-02-20T05:52:23.948Z,2.98
2019-02-20T05:54:51.959Z,2.77
2019-02-20T05:57:20.085Z,2.60
2019-02-20T05:59:48.119Z,2.40
2019-02-20T06:02:17.211Z,2.60
2019-02-20T06:04:45.276Z,2.50
2019-02-20T06:07:13.262Z,3.00
2019-02-20T06:09:41.244Z,1.87
2019-02-20T06:12:09.230Z,2.35
2019-02-20T06:14:38.204Z,2.87
2019-02-20T06:17:06.205Z,2.60
2019-02-20T06:19:34.237Z,2.37
2019-02-20T06:22:02.243Z,2.85
2019-02-20T06:24:30.287Z,2.50
2019-02-20T06:26:58.305Z,2.08
2019-02-20T06:29:26.377Z,2.25
2019-02-20T06:31:54.405Z,1.70
2019-02-20T06:34:22.477Z,1.80
2019-02-20T06:36:50.496Z,2.00
2019-02-20T06:39:18.492Z,3.55
2019-02-20T06:41:46.506Z,3.47
2019-02-20T06:44:14.649Z,3.58
2019-02-20T06:46:42.677Z,2.92
2019-02-20T06:49:10.646Z,3.15
2019-02-20T06:51:39.712Z,2.02
